Cortez, CO

1:54 PM MDT on May 29, 2015 (GMT -0600)
Four Corners Regional | | Change Station
CLOSE
Current Station
Airport
Location: Farmington,
Elevation: 5502 ft
Nearby Weather Stations

Elev 5502 ft 36.74 °N, 108.23 °W | Updated 1 hour ago

Clear
Clear
74 °F
Feels Like 74 °F
N
16
Wind Variable Wind from West
Gusts 23 mph

Today
High -- | Low -- °F
--% Chance of Precip.
Yesterday
High -- | Low -- °F
Precip. -- in
5:57 AM 8:27 PM
Waxing Gibbous, 85% visible
Pressure 30.04 in
Visibility 10.0 miles
Clouds Clear
Dew Point 28 °F
Humidity 18%
Rainfall 0.00 in
Snow Depth Not available.
UV 13 out of 12
Pollen 6.00 out of 12
Air Quality Not available.
Flu Activity Sporadic
METAR KFMN 291853Z 28014G20KT 10SM CLR 23/M02 A3018 RMK AO2 SLP172 T02331022

More Conditions Fewer Conditions

Pressure 30.04 in
Visibility 10.0 miles
Clouds Clear
Dew Point 28 °F
Humidity 18%
Rainfall 0.00 in
Snow Depth Not available.
UV 13 out of 12
Pollen 6.00 out of 12
Air Quality Not available.
Flu Activity Sporadic
METAR KFMN 291853Z 28014G20KT 10SM CLR 23/M02 A3018 RMK AO2 SLP172 T02331022

More Conditions Fewer Conditions

10-Day Weather Forecast

Almanac

Astronomy

May. 29, 2015 Rise Set
Actual Time
Civil Twilight
Nautical Twilight
Astronomical Twilight
Moon
Length of Visible Light
Length of Day
Tomorrow will be .
, % of the Moon is Illuminated

Today's Extremes

State Highs State Lows

Community

WunderPhotos

Upload Photos

1,825,332 photos uploaded!

WunderBlogs® & News

Nearby

Air Quality

  Air Quality AQ Index Pollutant
Not available.

Snow Depth

Station Depth Elevation

Earthquake Activity

City Distance Mag. Time & Date
Minimum magnitude displayed is 2.5.

Coastal Water Temperatures

Place Temperature

Stations

Nearby Weather Stations

Station Location Temp. Windchill Dew Point Humidity Wind Precip. Elev Updated Type